sensor_id;sensor_type;location;lat;lon;timestamp;P1;durP1;ratioP1;P2;durP2;ratioP2
67363;SDS011;54250;45.572;38.086;2023-02-01T00:01:46;1.65;;;1.35;;
67363;SDS011;54250;45.572;38.086;2023-02-01T00:04:12;6.43;;;1.30;;
67363;SDS011;54250;45.572;38.086;2023-02-01T00:06:38;5.22;;;1.30;;
67363;SDS011;54250;45.572;38.086;2023-02-01T00:09:04;23.90;;;3.30;;
67363;SDS011;54250;45.572;38.086;2023-02-01T00:11:30;30.63;;;1.80;;
67363;SDS011;54250;45.572;38.086;2023-02-01T00:13:56;66.38;;;1.45;;
67363;SDS011;54250;45.572;38.086;2023-02-01T00:16:23;96.20;;;3.30;;
67363;SDS011;54250;45.572;38.086;2023-02-01T00:19:01;7.55;;;2.13;;
67363;SDS011;54250;45.572;38.086;2023-02-01T00:21:28;25.67;;;2.70;;
67363;SDS011;54250;45.572;38.086;2023-02-01T00:23:55;13.55;;;1.20;;
67363;SDS011;54250;45.572;38.086;2023-02-01T00:26:30;14.95;;;1.88;;
67363;SDS011;54250;45.572;38.086;2023-02-01T00:28:57;19.60;;;1.27;;
67363;SDS011;54250;45.572;38.086;2023-02-01T00:31:23;11.30;;;3.75;;
67363;SDS011;54250;45.572;38.086;2023-02-01T00:33:49;10.43;;;1.45;;
67363;SDS011;54250;45.572;38.086;2023-02-01T00:36:15;0.25;;;0.25;;
67363;SDS011;54250;45.572;38.086;2023-02-01T00:38:41;1.27;;;0.77;;
67363;SDS011;54250;45.572;38.086;2023-02-01T00:41:11;7.28;;;1.50;;
67363;SDS011;54250;45.572;38.086;2023-02-01T00:43:38;3.17;;;1.17;;
67363;SDS011;54250;45.572;38.086;2023-02-01T00:46:04;0.73;;;0.65;;
67363;SDS011;54250;45.572;38.086;2023-02-01T00:48:30;2.13;;;1.55;;
67363;SDS011;54250;45.572;38.086;2023-02-01T00:51:03;1.05;;;1.05;;
67363;SDS011;54250;45.572;38.086;2023-02-01T00:53:32;2.40;;;2.08;;
67363;SDS011;54250;45.572;38.086;2023-02-01T00:55:58;1.52;;;1.15;;
67363;SDS011;54250;45.572;38.086;2023-02-01T00:58:25;0.95;;;0.88;;
67363;SDS011;54250;45.572;38.086;2023-02-01T01:03:35;22.13;;;1.40;;
67363;SDS011;54250;45.572;38.086;2023-02-01T01:06:07;4.03;;;1.23;;
67363;SDS011;54250;45.572;38.086;2023-02-01T01:08:35;1.02;;;1.02;;
67363;SDS011;54250;45.572;38.086;2023-02-01T01:11:06;86.22;;;3.45;;
67363;SDS011;54250;45.572;38.086;2023-02-01T01:13:33;1.00;;;0.88;;
67363;SDS011;54250;45.572;38.086;2023-02-01T01:16:00;1.63;;;1.38;;
67363;SDS011;54250;45.572;38.086;2023-02-01T01:18:31;0.88;;;0.70;;
67363;SDS011;54250;45.572;38.086;2023-02-01T01:20:58;12.00;;;0.65;;
67363;SDS011;54250;45.572;38.086;2023-02-01T01:23:25;0.57;;;0.57;;
67363;SDS011;54250;45.572;38.086;2023-02-01T01:25:51;1.83;;;1.52;;
67363;SDS011;54250;45.572;38.086;2023-02-01T01:28:18;3.13;;;1.10;;
67363;SDS011;54250;45.572;38.086;2023-02-01T01:30:44;31.33;;;1.35;;
67363;SDS011;54250;45.572;38.086;2023-02-01T01:33:11;1.02;;;0.63;;
67363;SDS011;54250;45.572;38.086;2023-02-01T01:35:37;0.57;;;0.57;;
67363;SDS011;54250;45.572;38.086;2023-02-01T01:38:03;0.85;;;0.60;;
67363;SDS011;54250;45.572;38.086;2023-02-01T01:40:30;6.25;;;1.13;;
67363;SDS011;54250;45.572;38.086;2023-02-01T01:42:56;11.05;;;2.38;;
67363;SDS011;54250;45.572;38.086;2023-02-01T01:45:27;2.42;;;0.75;;
67363;SDS011;54250;45.572;38.086;2023-02-01T01:47:59;0.60;;;0.22;;
67363;SDS011;54250;45.572;38.086;2023-02-01T01:50:31;0.50;;;0.50;;
67363;SDS011;54250;45.572;38.086;2023-02-01T01:53:04;1.45;;;0.85;;
67363;SDS011;54250;45.572;38.086;2023-02-01T01:55:35;13.70;;;2.38;;
67363;SDS011;54250;45.572;38.086;2023-02-01T01:58:05;6.97;;;0.63;;
67363;SDS011;54250;45.572;38.086;2023-02-01T02:00:36;40.30;;;1.83;;
67363;SDS011;54250;45.572;38.086;2023-02-01T02:03:07;49.90;;;3.97;;
67363;SDS011;54250;45.572;38.086;2023-02-01T02:05:41;32.58;;;2.25;;
67363;SDS011;54250;45.572;38.086;2023-02-01T02:08:08;1.33;;;1.00;;
67363;SDS011;54250;45.572;38.086;2023-02-01T02:10:34;0.80;;;0.80;;
67363;SDS011;54250;45.572;38.086;2023-02-01T02:13:20;8.05;;;1.48;;
67363;SDS011;54250;45.572;38.086;2023-02-01T02:15:58;6.15;;;1.92;;
67363;SDS011;54250;45.572;38.086;2023-02-01T02:18:27;39.40;;;3.10;;
67363;SDS011;54250;45.572;38.086;2023-02-01T02:21:15;3.35;;;1.83;;
67363;SDS011;54250;45.572;38.086;2023-02-01T02:27:03;14.52;;;2.65;;
67363;SDS011;54250;45.572;38.086;2023-02-01T02:41:12;20.42;;;3.53;;
67363;SDS011;54250;45.572;38.086;2023-02-01T02:47:22;22.42;;;1.38;;
67363;SDS011;54250;45.572;38.086;2023-02-01T02:50:05;0.20;;;0.20;;
67363;SDS011;54250;45.572;38.086;2023-02-01T02:53:15;2.90;;;1.20;;
67363;SDS011;54250;45.572;38.086;2023-02-01T02:56:04;9.00;;;1.42;;
67363;SDS011;54250;45.572;38.086;2023-02-01T02:58:50;6.25;;;1.77;;
67363;SDS011;54250;45.572;38.086;2023-02-01T03:01:35;6.22;;;1.25;;
67363;SDS011;54250;45.572;38.086;2023-02-01T03:04:21;4.90;;;1.33;;
67363;SDS011;54250;45.572;38.086;2023-02-01T03:06:49;3.85;;;1.10;;
67363;SDS011;54250;45.572;38.086;2023-02-01T03:09:34;59.97;;;5.03;;
67363;SDS011;54250;45.572;38.086;2023-02-01T03:12:04;2.08;;;0.75;;
67363;SDS011;54250;45.572;38.086;2023-02-01T03:14:56;6.57;;;2.60;;
67363;SDS011;54250;45.572;38.086;2023-02-01T03:17:29;1.45;;;1.10;;
67363;SDS011;54250;45.572;38.086;2023-02-01T03:20:01;0.20;;;0.20;;
67363;SDS011;54250;45.572;38.086;2023-02-01T03:22:28;0.47;;;0.32;;
67363;SDS011;54250;45.572;38.086;2023-02-01T03:25:02;15.93;;;1.60;;
67363;SDS011;54250;45.572;38.086;2023-02-01T03:27:35;1.55;;;1.10;;
67363;SDS011;54250;45.572;38.086;2023-02-01T03:30:12;0.47;;;0.40;;
67363;SDS011;54250;45.572;38.086;2023-02-01T03:32:44;2.45;;;1.15;;
67363;SDS011;54250;45.572;38.086;2023-02-01T03:35:44;2.03;;;0.38;;
67363;SDS011;54250;45.572;38.086;2023-02-01T03:46:30;4.70;;;1.08;;
67363;SDS011;54250;45.572;38.086;2023-02-01T03:49:00;49.65;;;1.20;;
67363;SDS011;54250;45.572;38.086;2023-02-01T03:51:29;0.40;;;0.40;;
67363;SDS011;54250;45.572;38.086;2023-02-01T03:53:56;9.98;;;0.60;;
67363;SDS011;54250;45.572;38.086;2023-02-01T03:56:23;1.23;;;0.95;;
67363;SDS011;54250;45.572;38.086;2023-02-01T03:58:52;1.90;;;0.75;;
67363;SDS011;54250;45.572;38.086;2023-02-01T04:01:27;2.63;;;1.10;;
67363;SDS011;54250;45.572;38.086;2023-02-01T04:03:55;0.93;;;0.38;;
67363;SDS011;54250;45.572;38.086;2023-02-01T04:06:21;0.50;;;0.50;;
67363;SDS011;54250;45.572;38.086;2023-02-01T04:08:47;0.47;;;0.47;;
67363;SDS011;54250;45.572;38.086;2023-02-01T04:11:13;0.80;;;0.80;;
67363;SDS011;54250;45.572;38.086;2023-02-01T04:13:39;39.65;;;3.72;;
67363;SDS011;54250;45.572;38.086;2023-02-01T04:16:05;0.47;;;0.47;;
67363;SDS011;54250;45.572;38.086;2023-02-01T04:18:31;1.27;;;0.85;;
67363;SDS011;54250;45.572;38.086;2023-02-01T04:20:57;1.75;;;0.90;;
67363;SDS011;54250;45.572;38.086;2023-02-01T04:23:23;34.28;;;0.95;;
67363;SDS011;54250;45.572;38.086;2023-02-01T04:25:49;0.13;;;0.13;;
67363;SDS011;54250;45.572;38.086;2023-02-01T04:28:15;0.15;;;0.15;;
67363;SDS011;54250;45.572;38.086;2023-02-01T04:30:41;1.35;;;0.88;;
67363;SDS011;54250;45.572;38.086;2023-02-01T04:33:07;0.90;;;0.85;;
67363;SDS011;54250;45.572;38.086;2023-02-01T04:35:33;67.85;;;2.08;;
67363;SDS011;54250;45.572;38.086;2023-02-01T04:37:59;6.43;;;0.63;;
67363;SDS011;54250;45.572;38.086;2023-02-01T04:40:25;0.75;;;0.68;;
67363;SDS011;54250;45.572;38.086;2023-02-01T04:42:51;0.70;;;0.55;;
67363;SDS011;54250;45.572;38.086;2023-02-01T04:45:17;0.88;;;0.63;;
67363;SDS011;54250;45.572;38.086;2023-02-01T04:47:43;0.52;;;0.52;;
67363;SDS011;54250;45.572;38.086;2023-02-01T04:50:09;4.78;;;0.68;;
67363;SDS011;54250;45.572;38.086;2023-02-01T04:52:36;0.63;;;0.35;;
67363;SDS011;54250;45.572;38.086;2023-02-01T04:55:03;0.43;;;0.32;;
67363;SDS011;54250;45.572;38.086;2023-02-01T04:57:29;0.60;;;0.28;;
67363;SDS011;54250;45.572;38.086;2023-02-01T04:59:55;0.10;;;0.10;;
67363;SDS011;54250;45.572;38.086;2023-02-01T05:02:21;0.45;;;0.40;;
67363;SDS011;54250;45.572;38.086;2023-02-01T05:04:47;0.80;;;0.75;;
67363;SDS011;54250;45.572;38.086;2023-02-01T05:07:13;0.47;;;0.47;;
67363;SDS011;54250;45.572;38.086;2023-02-01T05:09:39;0.40;;;0.40;;
67363;SDS011;54250;45.572;38.086;2023-02-01T05:12:05;13.93;;;1.38;;
67363;SDS011;54250;45.572;38.086;2023-02-01T05:14:50;0.20;;;0.20;;
67363;SDS011;54250;45.572;38.086;2023-02-01T05:17:16;0.28;;;0.28;;
67363;SDS011;54250;45.572;38.086;2023-02-01T05:19:42;1.55;;;1.38;;
67363;SDS011;54250;45.572;38.086;2023-02-01T05:22:08;0.25;;;0.25;;
67363;SDS011;54250;45.572;38.086;2023-02-01T05:24:34;0.30;;;0.30;;
67363;SDS011;54250;45.572;38.086;2023-02-01T05:27:00;0.35;;;0.35;;
67363;SDS011;54250;45.572;38.086;2023-02-01T05:29:26;0.52;;;0.52;;
67363;SDS011;54250;45.572;38.086;2023-02-01T05:31:52;3.85;;;1.08;;
67363;SDS011;54250;45.572;38.086;2023-02-01T05:34:18;0.52;;;0.50;;
67363;SDS011;54250;45.572;38.086;2023-02-01T05:36:44;31.55;;;3.13;;
67363;SDS011;54250;45.572;38.086;2023-02-01T05:39:10;0.38;;;0.32;;
67363;SDS011;54250;45.572;38.086;2023-02-01T05:41:36;48.47;;;2.28;;
67363;SDS011;54250;45.572;38.086;2023-02-01T05:44:02;0.75;;;0.65;;
67363;SDS011;54250;45.572;38.086;2023-02-01T05:46:28;14.45;;;2.15;;
67363;SDS011;54250;45.572;38.086;2023-02-01T05:48:55;9.27;;;1.23;;
67363;SDS011;54250;45.572;38.086;2023-02-01T05:51:20;6.28;;;1.65;;
67363;SDS011;54250;45.572;38.086;2023-02-01T05:53:46;12.07;;;2.25;;
67363;SDS011;54250;45.572;38.086;2023-02-01T05:56:14;1.00;;;0.52;;
67363;SDS011;54250;45.572;38.086;2023-02-01T05:58:40;2.10;;;1.35;;
67363;SDS011;54250;45.572;38.086;2023-02-01T06:01:06;23.48;;;1.85;;
67363;SDS011;54250;45.572;38.086;2023-02-01T06:03:32;1.35;;;1.05;;
67363;SDS011;54250;45.572;38.086;2023-02-01T06:05:58;54.10;;;2.70;;
67363;SDS011;54250;45.572;38.086;2023-02-01T06:08:25;7.15;;;0.95;;
67363;SDS011;54250;45.572;38.086;2023-02-01T06:10:57;1.08;;;0.63;;
67363;SDS011;54250;45.572;38.086;2023-02-01T06:13:26;38.65;;;2.53;;
67363;SDS011;54250;45.572;38.086;2023-02-01T06:15:52;4.47;;;1.35;;
67363;SDS011;54250;45.572;38.086;2023-02-01T06:18:18;0.73;;;0.73;;
67363;SDS011;54250;45.572;38.086;2023-02-01T06:20:45;21.67;;;2.20;;
67363;SDS011;54250;45.572;38.086;2023-02-01T06:23:10;28.38;;;0.98;;
67363;SDS011;54250;45.572;38.086;2023-02-01T06:25:36;0.60;;;0.40;;
67363;SDS011;54250;45.572;38.086;2023-02-01T06:28:02;87.53;;;6.20;;
67363;SDS011;54250;45.572;38.086;2023-02-01T06:30:31;10.98;;;1.88;;
67363;SDS011;54250;45.572;38.086;2023-02-01T06:32:58;1.10;;;0.93;;
67363;SDS011;54250;45.572;38.086;2023-02-01T06:35:24;26.88;;;0.75;;
67363;SDS011;54250;45.572;38.086;2023-02-01T06:37:51;0.47;;;0.47;;
67363;SDS011;54250;45.572;38.086;2023-02-01T06:40:17;1.48;;;1.38;;
67363;SDS011;54250;45.572;38.086;2023-02-01T06:42:43;1.52;;;1.13;;
67363;SDS011;54250;45.572;38.086;2023-02-01T06:45:09;0.57;;;0.38;;
67363;SDS011;54250;45.572;38.086;2023-02-01T06:47:36;12.45;;;0.43;;
67363;SDS011;54250;45.572;38.086;2023-02-01T06:50:02;1.02;;;0.93;;
67363;SDS011;54250;45.572;38.086;2023-02-01T06:52:28;0.50;;;0.50;;
67363;SDS011;54250;45.572;38.086;2023-02-01T06:54:54;49.35;;;1.67;;
67363;SDS011;54250;45.572;38.086;2023-02-01T06:57:21;1.63;;;1.10;;
67363;SDS011;54250;45.572;38.086;2023-02-01T06:59:46;0.68;;;0.60;;
67363;SDS011;54250;45.572;38.086;2023-02-01T07:02:12;0.60;;;0.40;;
67363;SDS011;54250;45.572;38.086;2023-02-01T07:04:38;0.55;;;0.50;;
67363;SDS011;54250;45.572;38.086;2023-02-01T07:07:04;0.98;;;0.60;;
67363;SDS011;54250;45.572;38.086;2023-02-01T07:09:30;0.20;;;0.20;;
67363;SDS011;54250;45.572;38.086;2023-02-01T07:11:56;5.63;;;1.42;;
67363;SDS011;54250;45.572;38.086;2023-02-01T07:14:22;0.55;;;0.38;;
67363;SDS011;54250;45.572;38.086;2023-02-01T07:16:48;1.05;;;0.57;;
67363;SDS011;54250;45.572;38.086;2023-02-01T07:19:14;0.45;;;0.40;;
67363;SDS011;54250;45.572;38.086;2023-02-01T07:21:40;2.67;;;1.02;;
67363;SDS011;54250;45.572;38.086;2023-02-01T07:24:06;1.10;;;0.20;;
67363;SDS011;54250;45.572;38.086;2023-02-01T07:26:32;4.25;;;0.30;;
67363;SDS011;54250;45.572;38.086;2023-02-01T07:28:58;0.38;;;0.30;;
67363;SDS011;54250;45.572;38.086;2023-02-01T07:31:25;0.77;;;0.68;;
67363;SDS011;54250;45.572;38.086;2023-02-01T07:33:54;1.98;;;1.30;;
67363;SDS011;54250;45.572;38.086;2023-02-01T07:36:21;2.92;;;0.90;;
67363;SDS011;54250;45.572;38.086;2023-02-01T07:38:47;21.77;;;0.63;;
67363;SDS011;54250;45.572;38.086;2023-02-01T07:41:13;0.65;;;0.40;;
67363;SDS011;54250;45.572;38.086;2023-02-01T07:43:40;0.50;;;0.50;;
67363;SDS011;54250;45.572;38.086;2023-02-01T07:46:06;0.45;;;0.45;;
67363;SDS011;54250;45.572;38.086;2023-02-01T07:48:33;0.40;;;0.40;;
67363;SDS011;54250;45.572;38.086;2023-02-01T07:53:30;0.45;;;0.45;;
67363;SDS011;54250;45.572;38.086;2023-02-01T07:55:58;33.97;;;2.72;;
67363;SDS011;54250;45.572;38.086;2023-02-01T07:58:24;1.30;;;1.20;;
67363;SDS011;54250;45.572;38.086;2023-02-01T08:00:51;0.63;;;0.63;;
67363;SDS011;54250;45.572;38.086;2023-02-01T08:03:35;0.73;;;0.68;;
67363;SDS011;54250;45.572;38.086;2023-02-01T08:06:02;0.32;;;0.32;;
67363;SDS011;54250;45.572;38.086;2023-02-01T08:08:28;1.20;;;1.00;;
67363;SDS011;54250;45.572;38.086;2023-02-01T08:11:01;0.85;;;0.55;;
67363;SDS011;54250;45.572;38.086;2023-02-01T08:13:29;1.67;;;1.27;;
67363;SDS011;54250;45.572;38.086;2023-02-01T08:15:59;0.80;;;0.60;;
67363;SDS011;54250;45.572;38.086;2023-02-01T08:18:26;0.40;;;0.40;;
67363;SDS011;54250;45.572;38.086;2023-02-01T08:20:52;1.60;;;0.82;;
67363;SDS011;54250;45.572;38.086;2023-02-01T08:23:19;0.20;;;0.20;;
67363;SDS011;54250;45.572;38.086;2023-02-01T08:25:45;0.95;;;0.80;;
67363;SDS011;54250;45.572;38.086;2023-02-01T08:28:12;0.50;;;0.50;;
67363;SDS011;54250;45.572;38.086;2023-02-01T08:30:38;1.50;;;1.23;;
67363;SDS011;54250;45.572;38.086;2023-02-01T08:33:05;1.00;;;0.63;;
67363;SDS011;54250;45.572;38.086;2023-02-01T08:35:32;0.45;;;0.45;;
67363;SDS011;54250;45.572;38.086;2023-02-01T08:38:00;1.83;;;1.02;;
67363;SDS011;54250;45.572;38.086;2023-02-01T08:40:26;0.55;;;0.55;;
67363;SDS011;54250;45.572;38.086;2023-02-01T08:42:53;0.82;;;0.82;;
67363;SDS011;54250;45.572;38.086;2023-02-01T08:45:26;1.05;;;0.75;;
67363;SDS011;54250;45.572;38.086;2023-02-01T08:47:55;1.05;;;0.70;;
67363;SDS011;54250;45.572;38.086;2023-02-01T08:50:22;0.88;;;0.63;;
67363;SDS011;54250;45.572;38.086;2023-02-01T08:52:48;0.75;;;0.75;;
67363;SDS011;54250;45.572;38.086;2023-02-01T08:55:15;1.42;;;1.02;;
67363;SDS011;54250;45.572;38.086;2023-02-01T08:57:41;2.38;;;1.63;;
67363;SDS011;54250;45.572;38.086;2023-02-01T09:00:08;0.52;;;0.52;;
67363;SDS011;54250;45.572;38.086;2023-02-01T09:02:38;0.57;;;0.57;;
67363;SDS011;54250;45.572;38.086;2023-02-01T09:05:04;1.50;;;1.40;;
67363;SDS011;54250;45.572;38.086;2023-02-01T09:07:32;0.60;;;0.43;;
67363;SDS011;54250;45.572;38.086;2023-02-01T09:09:58;5.32;;;1.00;;
67363;SDS011;54250;45.572;38.086;2023-02-01T09:12:29;2.35;;;1.40;;
67363;SDS011;54250;45.572;38.086;2023-02-01T09:14:57;1.33;;;1.05;;
67363;SDS011;54250;45.572;38.086;2023-02-01T09:17:27;1.38;;;1.08;;
67363;SDS011;54250;45.572;38.086;2023-02-01T09:19:54;1.02;;;0.88;;
67363;SDS011;54250;45.572;38.086;2023-02-01T09:22:20;1.13;;;0.68;;
67363;SDS011;54250;45.572;38.086;2023-02-01T09:24:46;0.75;;;0.73;;
67363;SDS011;54250;45.572;38.086;2023-02-01T09:27:12;1.50;;;1.00;;
67363;SDS011;54250;45.572;38.086;2023-02-01T09:29:38;2.35;;;1.35;;
67363;SDS011;54250;45.572;38.086;2023-02-01T09:32:04;2.42;;;1.67;;
67363;SDS011;54250;45.572;38.086;2023-02-01T09:34:32;1.65;;;1.35;;
67363;SDS011;54250;45.572;38.086;2023-02-01T09:36:59;0.95;;;0.77;;
67363;SDS011;54250;45.572;38.086;2023-02-01T09:39:25;1.30;;;1.20;;
67363;SDS011;54250;45.572;38.086;2023-02-01T09:47:19;3.50;;;0.98;;
67363;SDS011;54250;45.572;38.086;2023-02-01T09:52:25;2.17;;;1.13;;
67363;SDS011;54250;45.572;38.086;2023-02-01T09:55:01;0.52;;;0.52;;
67363;SDS011;54250;45.572;38.086;2023-02-01T09:57:39;0.90;;;0.75;;
67363;SDS011;54250;45.572;38.086;2023-02-01T10:00:16;3.75;;;1.83;;
67363;SDS011;54250;45.572;38.086;2023-02-01T10:02:49;3.55;;;0.55;;
67363;SDS011;54250;45.572;38.086;2023-02-01T10:05:18;2.58;;;1.52;;
67363;SDS011;54250;45.572;38.086;2023-02-01T10:10:51;2.40;;;1.20;;
67363;SDS011;54250;45.572;38.086;2023-02-01T10:22:02;1.52;;;0.90;;
67363;SDS011;54250;45.572;38.086;2023-02-01T10:24:34;2.13;;;1.00;;
67363;SDS011;54250;45.572;38.086;2023-02-01T10:27:18;1.23;;;1.13;;
67363;SDS011;54250;45.572;38.086;2023-02-01T10:30:06;1.35;;;0.82;;
67363;SDS011;54250;45.572;38.086;2023-02-01T10:32:38;0.90;;;0.88;;
67363;SDS011;54250;45.572;38.086;2023-02-01T10:35:26;1.73;;;0.95;;
67363;SDS011;54250;45.572;38.086;2023-02-01T10:37:55;1.40;;;1.25;;
67363;SDS011;54250;45.572;38.086;2023-02-01T10:40:26;0.63;;;0.63;;
67363;SDS011;54250;45.572;38.086;2023-02-01T10:43:01;0.22;;;0.22;;
67363;SDS011;54250;45.572;38.086;2023-02-01T10:45:29;1.50;;;1.30;;
67363;SDS011;54250;45.572;38.086;2023-02-01T10:47:57;1.60;;;0.80;;
67363;SDS011;54250;45.572;38.086;2023-02-01T10:50:29;1.83;;;1.48;;
67363;SDS011;54250;45.572;38.086;2023-02-01T10:53:03;2.70;;;1.60;;
67363;SDS011;54250;45.572;38.086;2023-02-01T10:55:39;4.78;;;1.83;;
67363;SDS011;54250;45.572;38.086;2023-02-01T10:58:17;2.72;;;1.25;;
67363;SDS011;54250;45.572;38.086;2023-02-01T11:08:56;1.20;;;0.77;;
67363;SDS011;54250;45.572;38.086;2023-02-01T11:11:23;1.38;;;1.25;;
67363;SDS011;54250;45.572;38.086;2023-02-01T11:13:54;6.22;;;1.90;;
67363;SDS011;54250;45.572;38.086;2023-02-01T11:16:38;3.72;;;2.58;;
67363;SDS011;54250;45.572;38.086;2023-02-01T11:19:05;1.90;;;0.70;;
67363;SDS011;54250;45.572;38.086;2023-02-01T11:21:34;2.72;;;2.13;;
67363;SDS011;54250;45.572;38.086;2023-02-01T11:24:02;5.72;;;2.42;;
67363;SDS011;54250;45.572;38.086;2023-02-01T11:26:29;3.22;;;2.05;;
67363;SDS011;54250;45.572;38.086;2023-02-01T11:28:59;9.65;;;3.22;;
67363;SDS011;54250;45.572;38.086;2023-02-01T11:31:29;1.13;;;0.88;;
67363;SDS011;54250;45.572;38.086;2023-02-01T11:33:59;4.28;;;1.45;;
67363;SDS011;54250;45.572;38.086;2023-02-01T11:36:38;2.15;;;1.52;;
67363;SDS011;54250;45.572;38.086;2023-02-01T11:41:56;3.33;;;2.35;;
67363;SDS011;54250;45.572;38.086;2023-02-01T11:50:03;3.40;;;2.40;;
67363;SDS011;54250;45.572;38.086;2023-02-01T12:09:20;7.88;;;3.90;;
67363;SDS011;54250;45.572;38.086;2023-02-01T12:12:13;4.18;;;2.83;;
67363;SDS011;54250;45.572;38.086;2023-02-01T12:20:20;71.45;;;30.13;;
67363;SDS011;54250;45.572;38.086;2023-02-01T12:23:00;207.20;;;92.72;;
67363;SDS011;54250;45.572;38.086;2023-02-01T12:30:57;202.90;;;121.75;;
67363;SDS011;54250;45.572;38.086;2023-02-01T12:41:52;99.10;;;58.20;;
67363;SDS011;54250;45.572;38.086;2023-02-01T12:47:00;12.35;;;7.40;;
67363;SDS011;54250;45.572;38.086;2023-02-01T12:52:06;15.10;;;4.65;;
67363;SDS011;54250;45.572;38.086;2023-02-01T12:54:54;5.93;;;3.45;;
67363;SDS011;54250;45.572;38.086;2023-02-01T12:57:27;6.40;;;2.55;;
67363;SDS011;54250;45.572;38.086;2023-02-01T13:02:28;11.25;;;3.45;;
67363;SDS011;54250;45.572;38.086;2023-02-01T13:05:11;4.90;;;2.63;;
67363;SDS011;54250;45.572;38.086;2023-02-01T13:13:11;8.10;;;3.40;;
67363;SDS011;54250;45.572;38.086;2023-02-01T13:15:49;10.63;;;5.03;;
67363;SDS011;54250;45.572;38.086;2023-02-01T13:18:18;5.18;;;3.10;;
67363;SDS011;54250;45.572;38.086;2023-02-01T13:23:29;6.38;;;2.83;;
67363;SDS011;54250;45.572;38.086;2023-02-01T13:25:58;7.22;;;2.78;;
67363;SDS011;54250;45.572;38.086;2023-02-01T13:42:21;8.43;;;3.70;;
67363;SDS011;54250;45.572;38.086;2023-02-01T13:44:51;5.43;;;2.05;;
67363;SDS011;54250;45.572;38.086;2023-02-01T13:49:57;5.32;;;2.60;;
67363;SDS011;54250;45.572;38.086;2023-02-01T13:52:42;2.58;;;1.92;;
67363;SDS011;54250;45.572;38.086;2023-02-01T13:57:45;3.42;;;2.38;;
67363;SDS011;54250;45.572;38.086;2023-02-01T14:00:27;4.20;;;2.45;;
67363;SDS011;54250;45.572;38.086;2023-02-01T14:21:30;3.15;;;1.63;;
67363;SDS011;54250;45.572;38.086;2023-02-01T14:26:47;1.90;;;1.33;;
67363;SDS011;54250;45.572;38.086;2023-02-01T14:47:45;4.90;;;2.55;;
67363;SDS011;54250;45.572;38.086;2023-02-01T14:55:42;4.90;;;2.50;;
67363;SDS011;54250;45.572;38.086;2023-02-01T14:58:18;5.47;;;3.05;;
67363;SDS011;54250;45.572;38.086;2023-02-01T15:00:52;5.47;;;2.97;;
67363;SDS011;54250;45.572;38.086;2023-02-01T15:03:41;7.28;;;3.63;;
67363;SDS011;54250;45.572;38.086;2023-02-01T15:06:23;7.95;;;3.58;;
67363;SDS011;54250;45.572;38.086;2023-02-01T15:08:52;8.13;;;3.72;;
67363;SDS011;54250;45.572;38.086;2023-02-01T15:11:21;7.07;;;3.30;;
67363;SDS011;54250;45.572;38.086;2023-02-01T15:13:48;3.38;;;2.40;;
67363;SDS011;54250;45.572;38.086;2023-02-01T15:16:16;4.95;;;2.75;;
67363;SDS011;54250;45.572;38.086;2023-02-01T15:18:42;7.82;;;3.38;;
67363;SDS011;54250;45.572;38.086;2023-02-01T15:21:21;8.73;;;3.17;;
67363;SDS011;54250;45.572;38.086;2023-02-01T15:23:48;3.47;;;2.17;;
67363;SDS011;54250;45.572;38.086;2023-02-01T15:26:25;3.75;;;2.88;;
67363;SDS011;54250;45.572;38.086;2023-02-01T15:28:52;2.22;;;1.50;;
67363;SDS011;54250;45.572;38.086;2023-02-01T15:31:30;4.38;;;3.42;;
67363;SDS011;54250;45.572;38.086;2023-02-01T15:33:58;4.65;;;2.92;;
67363;SDS011;54250;45.572;38.086;2023-02-01T15:36:24;6.07;;;3.53;;
67363;SDS011;54250;45.572;38.086;2023-02-01T15:39:15;3.80;;;3.03;;
67363;SDS011;54250;45.572;38.086;2023-02-01T15:41:51;5.30;;;3.58;;
67363;SDS011;54250;45.572;38.086;2023-02-01T15:44:33;4.60;;;2.83;;
67363;SDS011;54250;45.572;38.086;2023-02-01T15:47:08;2.75;;;2.00;;
67363;SDS011;54250;45.572;38.086;2023-02-01T15:49:39;6.43;;;3.85;;
67363;SDS011;54250;45.572;38.086;2023-02-01T15:52:13;6.88;;;3.85;;
67363;SDS011;54250;45.572;38.086;2023-02-01T15:54:49;6.40;;;2.95;;
67363;SDS011;54250;45.572;38.086;2023-02-01T15:57:26;3.92;;;2.15;;
67363;SDS011;54250;45.572;38.086;2023-02-01T16:00:04;8.00;;;4.25;;
67363;SDS011;54250;45.572;38.086;2023-02-01T16:05:55;2.47;;;1.88;;
67363;SDS011;54250;45.572;38.086;2023-02-01T16:08:24;1.42;;;1.15;;
67363;SDS011;54250;45.572;38.086;2023-02-01T16:10:52;6.30;;;2.15;;
67363;SDS011;54250;45.572;38.086;2023-02-01T16:13:20;3.40;;;1.75;;
67363;SDS011;54250;45.572;38.086;2023-02-01T16:15:47;4.80;;;2.35;;
67363;SDS011;54250;45.572;38.086;2023-02-01T16:18:13;3.80;;;2.20;;
67363;SDS011;54250;45.572;38.086;2023-02-01T16:20:41;4.88;;;2.75;;
67363;SDS011;54250;45.572;38.086;2023-02-01T16:23:08;3.38;;;2.75;;
67363;SDS011;54250;45.572;38.086;2023-02-01T16:25:35;7.03;;;3.50;;
67363;SDS011;54250;45.572;38.086;2023-02-01T16:28:02;3.38;;;2.55;;
67363;SDS011;54250;45.572;38.086;2023-02-01T16:30:28;6.88;;;2.28;;
67363;SDS011;54250;45.572;38.086;2023-02-01T16:32:55;3.63;;;2.53;;
67363;SDS011;54250;45.572;38.086;2023-02-01T16:35:27;4.25;;;3.03;;
67363;SDS011;54250;45.572;38.086;2023-02-01T16:38:01;5.18;;;2.33;;
67363;SDS011;54250;45.572;38.086;2023-02-01T16:40:37;10.10;;;2.30;;
67363;SDS011;54250;45.572;38.086;2023-02-01T16:43:08;9.68;;;1.98;;
67363;SDS011;54250;45.572;38.086;2023-02-01T16:45:44;4.13;;;2.30;;
67363;SDS011;54250;45.572;38.086;2023-02-01T16:48:17;3.65;;;2.13;;
67363;SDS011;54250;45.572;38.086;2023-02-01T16:50:54;3.47;;;2.50;;
67363;SDS011;54250;45.572;38.086;2023-02-01T16:53:23;4.63;;;2.50;;
67363;SDS011;54250;45.572;38.086;2023-02-01T16:55:53;2.50;;;2.22;;
67363;SDS011;54250;45.572;38.086;2023-02-01T16:58:20;10.52;;;1.58;;
67363;SDS011;54250;45.572;38.086;2023-02-01T17:00:46;4.30;;;2.95;;
67363;SDS011;54250;45.572;38.086;2023-02-01T17:03:13;3.45;;;1.73;;
67363;SDS011;54250;45.572;38.086;2023-02-01T17:05:46;13.32;;;1.60;;
67363;SDS011;54250;45.572;38.086;2023-02-01T17:08:16;6.65;;;1.95;;
67363;SDS011;54250;45.572;38.086;2023-02-01T17:10:46;2.30;;;1.42;;
67363;SDS011;54250;45.572;38.086;2023-02-01T17:13:13;1.90;;;1.58;;
67363;SDS011;54250;45.572;38.086;2023-02-01T17:15:42;4.63;;;2.40;;
67363;SDS011;54250;45.572;38.086;2023-02-01T17:18:15;5.57;;;1.17;;
67363;SDS011;54250;45.572;38.086;2023-02-01T17:20:42;4.32;;;2.88;;
67363;SDS011;54250;45.572;38.086;2023-02-01T17:23:09;7.60;;;2.58;;
67363;SDS011;54250;45.572;38.086;2023-02-01T17:25:35;2.58;;;2.13;;
67363;SDS011;54250;45.572;38.086;2023-02-01T17:28:03;2.45;;;1.80;;
67363;SDS011;54250;45.572;38.086;2023-02-01T17:30:29;7.57;;;3.60;;
67363;SDS011;54250;45.572;38.086;2023-02-01T17:32:56;3.75;;;2.28;;
67363;SDS011;54250;45.572;38.086;2023-02-01T17:35:24;5.80;;;2.55;;
67363;SDS011;54250;45.572;38.086;2023-02-01T17:37:52;2.03;;;1.73;;
67363;SDS011;54250;45.572;38.086;2023-02-01T17:40:18;2.20;;;1.65;;
67363;SDS011;54250;45.572;38.086;2023-02-01T17:42:45;6.47;;;3.00;;
67363;SDS011;54250;45.572;38.086;2023-02-01T17:47:47;1.60;;;1.40;;
67363;SDS011;54250;45.572;38.086;2023-02-01T17:50:13;3.45;;;2.28;;
67363;SDS011;54250;45.572;38.086;2023-02-01T17:52:39;6.25;;;3.13;;
67363;SDS011;54250;45.572;38.086;2023-02-01T17:55:18;83.53;;;34.08;;
67363;SDS011;54250;45.572;38.086;2023-02-01T17:57:47;13.07;;;7.70;;